sensor_id;sensor_type;location;lat;lon;timestamp;P1;durP1;ratioP1;P2;durP2;ratioP2
36279;SDS011;22317;47.936;12.742;2022-08-21T00:01:25;2.38;;;2.15;;
36279;SDS011;22317;47.936;12.742;2022-08-21T00:03:53;3.20;;;2.00;;
36279;SDS011;22317;47.936;12.742;2022-08-21T00:06:20;2.25;;;1.80;;
36279;SDS011;22317;47.936;12.742;2022-08-21T00:08:46;1.63;;;1.52;;
36279;SDS011;22317;47.936;12.742;2022-08-21T00:11:13;1.50;;;1.40;;
36279;SDS011;22317;47.936;12.742;2022-08-21T00:13:39;1.98;;;1.30;;
36279;SDS011;22317;47.936;12.742;2022-08-21T00:16:05;1.70;;;1.60;;
36279;SDS011;22317;47.936;12.742;2022-08-21T00:18:31;2.30;;;1.50;;
36279;SDS011;22317;47.936;12.742;2022-08-21T00:20:57;1.50;;;1.40;;
36279;SDS011;22317;47.936;12.742;2022-08-21T00:23:24;1.38;;;1.38;;
36279;SDS011;22317;47.936;12.742;2022-08-21T00:25:50;1.25;;;1.20;;
36279;SDS011;22317;47.936;12.742;2022-08-21T00:28:15;1.70;;;1.60;;
36279;SDS011;22317;47.936;12.742;2022-08-21T00:30:42;1.35;;;1.25;;
36279;SDS011;22317;47.936;12.742;2022-08-21T00:33:10;1.50;;;1.40;;
36279;SDS011;22317;47.936;12.742;2022-08-21T00:35:37;1.45;;;1.35;;
36279;SDS011;22317;47.936;12.742;2022-08-21T00:38:07;1.45;;;1.30;;
36279;SDS011;22317;47.936;12.742;2022-08-21T00:40:36;1.35;;;1.35;;
36279;SDS011;22317;47.936;12.742;2022-08-21T00:43:29;2.03;;;1.58;;
36279;SDS011;22317;47.936;12.742;2022-08-21T00:45:57;1.40;;;1.40;;
36279;SDS011;22317;47.936;12.742;2022-08-21T00:48:24;1.88;;;1.50;;
36279;SDS011;22317;47.936;12.742;2022-08-21T00:51:35;1.38;;;1.27;;
36279;SDS011;22317;47.936;12.742;2022-08-21T00:53:48;1.60;;;1.50;;
36279;SDS011;22317;47.936;12.742;2022-08-21T00:56:17;1.58;;;1.48;;
36279;SDS011;22317;47.936;12.742;2022-08-21T00:58:45;1.30;;;1.27;;
36279;SDS011;22317;47.936;12.742;2022-08-21T01:01:11;1.65;;;1.55;;
36279;SDS011;22317;47.936;12.742;2022-08-21T01:03:37;1.70;;;1.60;;
36279;SDS011;22317;47.936;12.742;2022-08-21T01:06:03;1.30;;;1.30;;
36279;SDS011;22317;47.936;12.742;2022-08-21T01:08:30;2.80;;;1.42;;
36279;SDS011;22317;47.936;12.742;2022-08-21T01:10:57;1.55;;;1.45;;
36279;SDS011;22317;47.936;12.742;2022-08-21T01:13:25;1.48;;;1.38;;
36279;SDS011;22317;47.936;12.742;2022-08-21T01:15:53;1.45;;;1.35;;
36279;SDS011;22317;47.936;12.742;2022-08-21T01:18:21;1.88;;;1.73;;
36279;SDS011;22317;47.936;12.742;2022-08-21T01:20:59;1.48;;;1.40;;
36279;SDS011;22317;47.936;12.742;2022-08-21T01:23:38;1.50;;;1.40;;
36279;SDS011;22317;47.936;12.742;2022-08-21T01:26:07;1.52;;;1.42;;
36279;SDS011;22317;47.936;12.742;2022-08-21T01:28:34;1.55;;;1.40;;
36279;SDS011;22317;47.936;12.742;2022-08-21T01:31:06;1.38;;;1.27;;
36279;SDS011;22317;47.936;12.742;2022-08-21T01:33:33;1.27;;;1.27;;
36279;SDS011;22317;47.936;12.742;2022-08-21T01:35:59;1.50;;;1.40;;
36279;SDS011;22317;47.936;12.742;2022-08-21T01:38:25;2.25;;;2.05;;
36279;SDS011;22317;47.936;12.742;2022-08-21T01:40:52;2.55;;;1.30;;
36279;SDS011;22317;47.936;12.742;2022-08-21T01:43:17;1.35;;;1.30;;
36279;SDS011;22317;47.936;12.742;2022-08-21T01:45:43;2.88;;;1.25;;
36279;SDS011;22317;47.936;12.742;2022-08-21T01:48:09;1.30;;;1.20;;
36279;SDS011;22317;47.936;12.742;2022-08-21T01:50:35;1.38;;;1.38;;
36279;SDS011;22317;47.936;12.742;2022-08-21T01:53:01;1.40;;;1.30;;
36279;SDS011;22317;47.936;12.742;2022-08-21T01:55:28;1.42;;;1.30;;
36279;SDS011;22317;47.936;12.742;2022-08-21T01:57:54;1.35;;;1.35;;
36279;SDS011;22317;47.936;12.742;2022-08-21T02:00:21;1.40;;;1.40;;
36279;SDS011;22317;47.936;12.742;2022-08-21T02:02:50;1.50;;;1.40;;
36279;SDS011;22317;47.936;12.742;2022-08-21T02:05:16;1.40;;;1.33;;
36279;SDS011;22317;47.936;12.742;2022-08-21T02:07:45;1.73;;;1.50;;
36279;SDS011;22317;47.936;12.742;2022-08-21T02:10:16;1.08;;;1.08;;
36279;SDS011;22317;47.936;12.742;2022-08-21T02:12:47;1.63;;;1.30;;
36279;SDS011;22317;47.936;12.742;2022-08-21T02:15:13;1.70;;;1.27;;
36279;SDS011;22317;47.936;12.742;2022-08-21T02:17:44;1.27;;;1.17;;
36279;SDS011;22317;47.936;12.742;2022-08-21T02:20:15;1.10;;;1.00;;
36279;SDS011;22317;47.936;12.742;2022-08-21T02:22:45;1.02;;;1.02;;
36279;SDS011;22317;47.936;12.742;2022-08-21T02:25:10;1.17;;;1.17;;
36279;SDS011;22317;47.936;12.742;2022-08-21T02:27:38;1.40;;;1.30;;
36279;SDS011;22317;47.936;12.742;2022-08-21T02:30:05;1.30;;;1.20;;
36279;SDS011;22317;47.936;12.742;2022-08-21T02:32:34;1.42;;;1.33;;
36279;SDS011;22317;47.936;12.742;2022-08-21T02:35:00;2.10;;;1.38;;
36279;SDS011;22317;47.936;12.742;2022-08-21T02:37:26;1.55;;;1.40;;
36279;SDS011;22317;47.936;12.742;2022-08-21T02:39:52;1.25;;;1.15;;
36279;SDS011;22317;47.936;12.742;2022-08-21T02:42:17;2.13;;;1.65;;
36279;SDS011;22317;47.936;12.742;2022-08-21T02:44:43;1.90;;;1.35;;
36279;SDS011;22317;47.936;12.742;2022-08-21T02:47:09;1.10;;;1.10;;
36279;SDS011;22317;47.936;12.742;2022-08-21T02:49:35;1.58;;;1.25;;
36279;SDS011;22317;47.936;12.742;2022-08-21T02:52:00;2.05;;;1.25;;
36279;SDS011;22317;47.936;12.742;2022-08-21T02:54:26;1.42;;;1.23;;
36279;SDS011;22317;47.936;12.742;2022-08-21T02:56:52;1.58;;;1.48;;
36279;SDS011;22317;47.936;12.742;2022-08-21T02:59:18;1.50;;;1.40;;
36279;SDS011;22317;47.936;12.742;2022-08-21T03:01:44;1.33;;;1.20;;
36279;SDS011;22317;47.936;12.742;2022-08-21T03:04:09;1.50;;;1.40;;
36279;SDS011;22317;47.936;12.742;2022-08-21T03:06:35;1.67;;;1.20;;
36279;SDS011;22317;47.936;12.742;2022-08-21T03:09:01;2.15;;;1.38;;
36279;SDS011;22317;47.936;12.742;2022-08-21T03:11:28;1.48;;;1.38;;
36279;SDS011;22317;47.936;12.742;2022-08-21T03:13:54;1.30;;;1.30;;
36279;SDS011;22317;47.936;12.742;2022-08-21T03:16:19;1.27;;;1.20;;
36279;SDS011;22317;47.936;12.742;2022-08-21T03:18:45;1.25;;;1.20;;
36279;SDS011;22317;47.936;12.742;2022-08-21T03:21:12;1.70;;;1.60;;
36279;SDS011;22317;47.936;12.742;2022-08-21T03:23:38;1.77;;;1.15;;
36279;SDS011;22317;47.936;12.742;2022-08-21T03:26:05;1.60;;;1.50;;
36279;SDS011;22317;47.936;12.742;2022-08-21T03:28:31;1.85;;;1.33;;
36279;SDS011;22317;47.936;12.742;2022-08-21T03:30:57;2.00;;;1.40;;
36279;SDS011;22317;47.936;12.742;2022-08-21T03:33:23;1.30;;;1.25;;
36279;SDS011;22317;47.936;12.742;2022-08-21T03:35:56;1.67;;;1.58;;
36279;SDS011;22317;47.936;12.742;2022-08-21T03:38:28;1.25;;;1.20;;
36279;SDS011;22317;47.936;12.742;2022-08-21T03:40:55;1.13;;;1.13;;
36279;SDS011;22317;47.936;12.742;2022-08-21T03:43:22;1.30;;;1.30;;
36279;SDS011;22317;47.936;12.742;2022-08-21T03:45:48;1.58;;;1.40;;
36279;SDS011;22317;47.936;12.742;2022-08-21T03:48:14;1.67;;;1.48;;
36279;SDS011;22317;47.936;12.742;2022-08-21T03:50:41;2.08;;;1.30;;
36279;SDS011;22317;47.936;12.742;2022-08-21T03:53:09;1.25;;;1.17;;
36279;SDS011;22317;47.936;12.742;2022-08-21T03:55:36;2.05;;;1.38;;
36279;SDS011;22317;47.936;12.742;2022-08-21T03:58:02;1.10;;;1.10;;
36279;SDS011;22317;47.936;12.742;2022-08-21T04:00:28;1.20;;;1.10;;
36279;SDS011;22317;47.936;12.742;2022-08-21T04:02:54;1.42;;;1.33;;
36279;SDS011;22317;47.936;12.742;2022-08-21T04:05:20;1.73;;;1.17;;
36279;SDS011;22317;47.936;12.742;2022-08-21T04:08:00;1.30;;;1.20;;
36279;SDS011;22317;47.936;12.742;2022-08-21T04:10:29;1.17;;;1.10;;
36279;SDS011;22317;47.936;12.742;2022-08-21T04:12:56;1.30;;;1.20;;
36279;SDS011;22317;47.936;12.742;2022-08-21T04:15:23;1.90;;;1.52;;
36279;SDS011;22317;47.936;12.742;2022-08-21T04:17:50;1.08;;;1.08;;
36279;SDS011;22317;47.936;12.742;2022-08-21T04:20:17;1.60;;;1.50;;
36279;SDS011;22317;47.936;12.742;2022-08-21T04:22:44;4.03;;;2.17;;
36279;SDS011;22317;47.936;12.742;2022-08-21T04:25:11;2.75;;;2.55;;
36279;SDS011;22317;47.936;12.742;2022-08-21T04:27:38;2.17;;;1.60;;
36279;SDS011;22317;47.936;12.742;2022-08-21T04:30:05;1.63;;;1.60;;
36279;SDS011;22317;47.936;12.742;2022-08-21T04:32:31;1.23;;;1.13;;
36279;SDS011;22317;47.936;12.742;2022-08-21T04:35:01;1.20;;;1.20;;
36279;SDS011;22317;47.936;12.742;2022-08-21T04:37:30;1.73;;;1.02;;
36279;SDS011;22317;47.936;12.742;2022-08-21T04:39:56;1.27;;;1.17;;
36279;SDS011;22317;47.936;12.742;2022-08-21T04:42:25;1.08;;;1.08;;
36279;SDS011;22317;47.936;12.742;2022-08-21T04:44:52;2.05;;;1.20;;
36279;SDS011;22317;47.936;12.742;2022-08-21T04:47:19;1.48;;;1.38;;
36279;SDS011;22317;47.936;12.742;2022-08-21T04:49:45;1.45;;;1.30;;
36279;SDS011;22317;47.936;12.742;2022-08-21T04:52:11;1.75;;;1.20;;
36279;SDS011;22317;47.936;12.742;2022-08-21T04:54:41;1.60;;;1.40;;
36279;SDS011;22317;47.936;12.742;2022-08-21T04:57:10;1.30;;;1.25;;
36279;SDS011;22317;47.936;12.742;2022-08-21T04:59:38;1.02;;;0.95;;
36279;SDS011;22317;47.936;12.742;2022-08-21T05:02:07;1.00;;;0.98;;
36279;SDS011;22317;47.936;12.742;2022-08-21T05:04:36;2.42;;;1.20;;
36279;SDS011;22317;47.936;12.742;2022-08-21T05:07:07;1.75;;;1.10;;
36279;SDS011;22317;47.936;12.742;2022-08-21T05:09:40;2.13;;;1.00;;
36279;SDS011;22317;47.936;12.742;2022-08-21T05:12:06;2.72;;;1.10;;
36279;SDS011;22317;47.936;12.742;2022-08-21T05:14:32;1.40;;;1.30;;
36279;SDS011;22317;47.936;12.742;2022-08-21T05:16:58;2.08;;;1.00;;
36279;SDS011;22317;47.936;12.742;2022-08-21T05:19:24;1.63;;;1.17;;
36279;SDS011;22317;47.936;12.742;2022-08-21T05:21:50;1.33;;;1.20;;
36279;SDS011;22317;47.936;12.742;2022-08-21T05:24:17;1.08;;;1.08;;
36279;SDS011;22317;47.936;12.742;2022-08-21T05:26:43;1.48;;;1.08;;
36279;SDS011;22317;47.936;12.742;2022-08-21T05:29:09;1.20;;;1.20;;
36279;SDS011;22317;47.936;12.742;2022-08-21T05:31:36;1.38;;;1.23;;
36279;SDS011;22317;47.936;12.742;2022-08-21T05:34:02;3.22;;;1.33;;
36279;SDS011;22317;47.936;12.742;2022-08-21T05:36:29;1.13;;;1.10;;
36279;SDS011;22317;47.936;12.742;2022-08-21T05:38:55;1.10;;;1.10;;
36279;SDS011;22317;47.936;12.742;2022-08-21T05:41:21;1.15;;;1.05;;
36279;SDS011;22317;47.936;12.742;2022-08-21T05:43:47;1.50;;;1.27;;
36279;SDS011;22317;47.936;12.742;2022-08-21T05:46:12;1.38;;;1.10;;
36279;SDS011;22317;47.936;12.742;2022-08-21T05:48:38;1.30;;;1.20;;
36279;SDS011;22317;47.936;12.742;2022-08-21T05:51:08;1.77;;;1.13;;
36279;SDS011;22317;47.936;12.742;2022-08-21T05:53:36;1.60;;;1.50;;
36279;SDS011;22317;47.936;12.742;2022-08-21T05:56:03;1.70;;;1.27;;
36279;SDS011;22317;47.936;12.742;2022-08-21T05:58:30;2.30;;;1.70;;
36279;SDS011;22317;47.936;12.742;2022-08-21T06:00:58;2.30;;;2.10;;
36279;SDS011;22317;47.936;12.742;2022-08-21T06:03:26;3.13;;;2.58;;
36279;SDS011;22317;47.936;12.742;2022-08-21T06:05:58;2.90;;;2.70;;
36279;SDS011;22317;47.936;12.742;2022-08-21T06:08:25;2.10;;;2.00;;
36279;SDS011;22317;47.936;12.742;2022-08-21T06:10:51;3.28;;;1.83;;
36279;SDS011;22317;47.936;12.742;2022-08-21T06:13:19;1.80;;;1.35;;
36279;SDS011;22317;47.936;12.742;2022-08-21T06:15:47;1.60;;;1.50;;
36279;SDS011;22317;47.936;12.742;2022-08-21T06:18:13;1.70;;;1.60;;
36279;SDS011;22317;47.936;12.742;2022-08-21T06:20:40;2.22;;;2.03;;
36279;SDS011;22317;47.936;12.742;2022-08-21T06:23:06;1.85;;;1.65;;
36279;SDS011;22317;47.936;12.742;2022-08-21T06:25:32;1.73;;;1.40;;
36279;SDS011;22317;47.936;12.742;2022-08-21T06:28:05;2.55;;;2.20;;
36279;SDS011;22317;47.936;12.742;2022-08-21T06:30:32;6.55;;;6.05;;
36279;SDS011;22317;47.936;12.742;2022-08-21T06:32:59;3.47;;;2.67;;
36279;SDS011;22317;47.936;12.742;2022-08-21T06:35:25;2.97;;;1.70;;
36279;SDS011;22317;47.936;12.742;2022-08-21T06:37:51;2.20;;;1.08;;
36279;SDS011;22317;47.936;12.742;2022-08-21T06:40:17;3.92;;;3.60;;
36279;SDS011;22317;47.936;12.742;2022-08-21T06:42:42;2.47;;;2.20;;
36279;SDS011;22317;47.936;12.742;2022-08-21T06:45:09;1.52;;;1.20;;
36279;SDS011;22317;47.936;12.742;2022-08-21T06:47:35;1.95;;;1.77;;
36279;SDS011;22317;47.936;12.742;2022-08-21T06:50:01;2.10;;;2.00;;
36279;SDS011;22317;47.936;12.742;2022-08-21T06:52:27;1.88;;;1.65;;
36279;SDS011;22317;47.936;12.742;2022-08-21T06:54:53;5.43;;;4.93;;
36279;SDS011;22317;47.936;12.742;2022-08-21T06:57:19;3.03;;;1.80;;
36279;SDS011;22317;47.936;12.742;2022-08-21T06:59:45;3.45;;;2.90;;
36279;SDS011;22317;47.936;12.742;2022-08-21T07:02:10;3.65;;;3.40;;
36279;SDS011;22317;47.936;12.742;2022-08-21T07:04:36;2.47;;;1.70;;
36279;SDS011;22317;47.936;12.742;2022-08-21T07:07:02;2.00;;;1.17;;
36279;SDS011;22317;47.936;12.742;2022-08-21T07:09:27;2.83;;;1.67;;
36279;SDS011;22317;47.936;12.742;2022-08-21T07:11:55;2.22;;;1.70;;
36279;SDS011;22317;47.936;12.742;2022-08-21T07:14:21;1.88;;;1.77;;
36279;SDS011;22317;47.936;12.742;2022-08-21T07:16:48;1.65;;;1.55;;
36279;SDS011;22317;47.936;12.742;2022-08-21T07:19:14;2.83;;;1.20;;
36279;SDS011;22317;47.936;12.742;2022-08-21T07:21:40;1.42;;;1.20;;
36279;SDS011;22317;47.936;12.742;2022-08-21T07:24:06;1.55;;;1.45;;
36279;SDS011;22317;47.936;12.742;2022-08-21T07:26:32;2.63;;;2.28;;
36279;SDS011;22317;47.936;12.742;2022-08-21T07:28:58;1.75;;;1.63;;
36279;SDS011;22317;47.936;12.742;2022-08-21T07:31:24;1.42;;;1.30;;
36279;SDS011;22317;47.936;12.742;2022-08-21T07:33:51;3.42;;;2.20;;
36279;SDS011;22317;47.936;12.742;2022-08-21T07:36:17;1.83;;;1.25;;
36279;SDS011;22317;47.936;12.742;2022-08-21T07:38:43;1.67;;;1.58;;
36279;SDS011;22317;47.936;12.742;2022-08-21T07:41:20;2.22;;;2.13;;
36279;SDS011;22317;47.936;12.742;2022-08-21T07:43:48;2.28;;;2.08;;
36279;SDS011;22317;47.936;12.742;2022-08-21T07:46:14;10.15;;;9.05;;
36279;SDS011;22317;47.936;12.742;2022-08-21T07:48:40;1.77;;;1.67;;
36279;SDS011;22317;47.936;12.742;2022-08-21T07:51:07;2.20;;;1.80;;
36279;SDS011;22317;47.936;12.742;2022-08-21T07:53:36;5.72;;;4.82;;
36279;SDS011;22317;47.936;12.742;2022-08-21T07:56:02;3.25;;;1.60;;
36279;SDS011;22317;47.936;12.742;2022-08-21T07:58:29;1.73;;;1.60;;
36279;SDS011;22317;47.936;12.742;2022-08-21T08:00:56;3.10;;;1.65;;
36279;SDS011;22317;47.936;12.742;2022-08-21T08:03:22;1.40;;;1.38;;
36279;SDS011;22317;47.936;12.742;2022-08-21T08:05:48;2.70;;;2.50;;
36279;SDS011;22317;47.936;12.742;2022-08-21T08:08:14;2.65;;;2.45;;
36279;SDS011;22317;47.936;12.742;2022-08-21T08:10:40;2.38;;;1.65;;
36279;SDS011;22317;47.936;12.742;2022-08-21T08:13:06;2.13;;;1.77;;
36279;SDS011;22317;47.936;12.742;2022-08-21T08:15:32;2.80;;;2.60;;
36279;SDS011;22317;47.936;12.742;2022-08-21T08:17:58;2.70;;;1.75;;
36279;SDS011;22317;47.936;12.742;2022-08-21T08:20:25;3.15;;;2.67;;
36279;SDS011;22317;47.936;12.742;2022-08-21T08:22:52;3.15;;;2.85;;
36279;SDS011;22317;47.936;12.742;2022-08-21T08:25:19;4.35;;;3.95;;
36279;SDS011;22317;47.936;12.742;2022-08-21T08:27:46;4.80;;;4.35;;
36279;SDS011;22317;47.936;12.742;2022-08-21T08:30:12;10.50;;;9.48;;
36279;SDS011;22317;47.936;12.742;2022-08-21T08:32:39;2.50;;;2.17;;
36279;SDS011;22317;47.936;12.742;2022-08-21T08:35:06;2.63;;;2.42;;
36279;SDS011;22317;47.936;12.742;2022-08-21T08:37:32;2.72;;;2.03;;
36279;SDS011;22317;47.936;12.742;2022-08-21T08:39:59;1.50;;;1.40;;
36279;SDS011;22317;47.936;12.742;2022-08-21T08:42:30;1.70;;;1.48;;
36279;SDS011;22317;47.936;12.742;2022-08-21T08:45:05;1.58;;;1.45;;
36279;SDS011;22317;47.936;12.742;2022-08-21T08:47:36;4.00;;;1.63;;
36279;SDS011;22317;47.936;12.742;2022-08-21T08:52:39;2.35;;;2.22;;
36279;SDS011;22317;47.936;12.742;2022-08-21T08:55:13;2.00;;;1.80;;
36279;SDS011;22317;47.936;12.742;2022-08-21T08:57:42;2.20;;;1.98;;
36279;SDS011;22317;47.936;12.742;2022-08-21T09:00:12;1.80;;;1.70;;
36279;SDS011;22317;47.936;12.742;2022-08-21T09:02:40;2.35;;;1.95;;
36279;SDS011;22317;47.936;12.742;2022-08-21T09:05:07;2.28;;;1.67;;
36279;SDS011;22317;47.936;12.742;2022-08-21T09:10:22;3.05;;;1.92;;
36279;SDS011;22317;47.936;12.742;2022-08-21T09:13:14;4.30;;;2.15;;
36279;SDS011;22317;47.936;12.742;2022-08-21T09:29:48;2.63;;;2.40;;
36279;SDS011;22317;47.936;12.742;2022-08-21T09:37:31;3.65;;;2.20;;
36279;SDS011;22317;47.936;12.742;2022-08-21T09:39:59;2.38;;;2.17;;
36279;SDS011;22317;47.936;12.742;2022-08-21T09:42:40;3.92;;;2.05;;
36279;SDS011;22317;47.936;12.742;2022-08-21T09:45:18;2.45;;;2.35;;
36279;SDS011;22317;47.936;12.742;2022-08-21T09:47:47;4.68;;;2.20;;
36279;SDS011;22317;47.936;12.742;2022-08-21T09:50:18;2.10;;;1.90;;
36279;SDS011;22317;47.936;12.742;2022-08-21T09:52:58;3.00;;;2.80;;
36279;SDS011;22317;47.936;12.742;2022-08-21T09:55:38;4.57;;;4.20;;
36279;SDS011;22317;47.936;12.742;2022-08-21T09:58:31;3.17;;;2.33;;
36279;SDS011;22317;47.936;12.742;2022-08-21T10:00:59;3.20;;;2.90;;
36279;SDS011;22317;47.936;12.742;2022-08-21T10:03:26;2.67;;;2.47;;
36279;SDS011;22317;47.936;12.742;2022-08-21T10:05:57;4.13;;;3.45;;
36279;SDS011;22317;47.936;12.742;2022-08-21T10:08:25;2.95;;;2.58;;
36279;SDS011;22317;47.936;12.742;2022-08-21T10:11:35;2.90;;;2.70;;
36279;SDS011;22317;47.936;12.742;2022-08-21T10:24:29;3.85;;;3.55;;
36279;SDS011;22317;47.936;12.742;2022-08-21T10:27:07;2.85;;;2.20;;
36279;SDS011;22317;47.936;12.742;2022-08-21T10:29:39;2.20;;;2.10;;
36279;SDS011;22317;47.936;12.742;2022-08-21T10:32:16;2.35;;;2.15;;
36279;SDS011;22317;47.936;12.742;2022-08-21T10:57:00;3.15;;;2.80;;
36279;SDS011;22317;47.936;12.742;2022-08-21T10:59:42;2.17;;;2.08;;
36279;SDS011;22317;47.936;12.742;2022-08-21T11:02:17;2.50;;;2.00;;
36279;SDS011;22317;47.936;12.742;2022-08-21T11:07:26;4.70;;;4.40;;
36279;SDS011;22317;47.936;12.742;2022-08-21T11:09:57;5.32;;;4.90;;
36279;SDS011;22317;47.936;12.742;2022-08-21T11:12:40;4.00;;;2.70;;
36279;SDS011;22317;47.936;12.742;2022-08-21T11:18:28;1.83;;;1.73;;
36279;SDS011;22317;47.936;12.742;2022-08-21T11:21:25;2.15;;;2.00;;
36279;SDS011;22317;47.936;12.742;2022-08-21T11:23:50;2.17;;;1.98;;
36279;SDS011;22317;47.936;12.742;2022-08-21T11:26:39;3.10;;;2.63;;
36279;SDS011;22317;47.936;12.742;2022-08-21T11:29:17;2.40;;;2.30;;
36279;SDS011;22317;47.936;12.742;2022-08-21T11:32:03;5.00;;;4.60;;
36279;SDS011;22317;47.936;12.742;2022-08-21T11:34:58;2.25;;;2.05;;
36279;SDS011;22317;47.936;12.742;2022-08-21T11:45:08;11.73;;;10.52;;
36279;SDS011;22317;47.936;12.742;2022-08-21T11:47:49;5.90;;;4.63;;
36279;SDS011;22317;47.936;12.742;2022-08-21T11:50:28;13.48;;;12.18;;
36279;SDS011;22317;47.936;12.742;2022-08-21T11:53:01;3.08;;;2.78;;
36279;SDS011;22317;47.936;12.742;2022-08-21T11:58:06;4.85;;;4.55;;
36279;SDS011;22317;47.936;12.742;2022-08-21T12:00:41;3.72;;;3.53;;
36279;SDS011;22317;47.936;12.742;2022-08-21T12:03:11;3.03;;;2.80;;
36279;SDS011;22317;47.936;12.742;2022-08-21T12:05:55;4.63;;;3.30;;
36279;SDS011;22317;47.936;12.742;2022-08-21T12:08:35;3.47;;;3.28;;
36279;SDS011;22317;47.936;12.742;2022-08-21T12:13:52;3.55;;;3.22;;
36279;SDS011;22317;47.936;12.742;2022-08-21T12:17:03;3.58;;;3.10;;
36279;SDS011;22317;47.936;12.742;2022-08-21T12:19:30;3.63;;;3.28;;
36279;SDS011;22317;47.936;12.742;2022-08-21T12:30:32;3.17;;;2.97;;
36279;SDS011;22317;47.936;12.742;2022-08-21T12:33:20;3.95;;;2.92;;
36279;SDS011;22317;47.936;12.742;2022-08-21T12:36:11;2.95;;;2.75;;
36279;SDS011;22317;47.936;12.742;2022-08-21T12:41:26;3.05;;;2.85;;
36279;SDS011;22317;47.936;12.742;2022-08-21T12:44:10;2.92;;;2.72;;
36279;SDS011;22317;47.936;12.742;2022-08-21T12:46:44;2.92;;;2.72;;
36279;SDS011;22317;47.936;12.742;2022-08-21T12:49:18;5.22;;;4.85;;
36279;SDS011;22317;47.936;12.742;2022-08-21T12:51:55;2.33;;;2.22;;
36279;SDS011;22317;47.936;12.742;2022-08-21T12:54:27;2.95;;;2.10;;
36279;SDS011;22317;47.936;12.742;2022-08-21T12:56:56;1.92;;;1.83;;
36279;SDS011;22317;47.936;12.742;2022-08-21T12:59:24;2.17;;;1.98;;
36279;SDS011;22317;47.936;12.742;2022-08-21T13:01:50;2.35;;;2.03;;
36279;SDS011;22317;47.936;12.742;2022-08-21T13:04:18;2.65;;;2.05;;
36279;SDS011;22317;47.936;12.742;2022-08-21T13:06:49;3.17;;;2.85;;
36279;SDS011;22317;47.936;12.742;2022-08-21T13:09:18;2.22;;;2.10;;
36279;SDS011;22317;47.936;12.742;2022-08-21T13:11:49;2.20;;;2.10;;
36279;SDS011;22317;47.936;12.742;2022-08-21T13:16:54;5.70;;;5.20;;
36279;SDS011;22317;47.936;12.742;2022-08-21T13:19:21;3.25;;;3.05;;
36279;SDS011;22317;47.936;12.742;2022-08-21T13:21:48;2.00;;;1.90;;
36279;SDS011;22317;47.936;12.742;2022-08-21T13:26:40;2.35;;;1.88;;
36279;SDS011;22317;47.936;12.742;2022-08-21T13:29:07;10.20;;;9.18;;
36279;SDS011;22317;47.936;12.742;2022-08-21T13:31:38;2.22;;;1.98;;
36279;SDS011;22317;47.936;12.742;2022-08-21T13:34:05;2.65;;;2.42;;
36279;SDS011;22317;47.936;12.742;2022-08-21T13:36:34;3.47;;;3.28;;
36279;SDS011;22317;47.936;12.742;2022-08-21T13:39:02;4.20;;;3.85;;
36279;SDS011;22317;47.936;12.742;2022-08-21T13:41:37;2.70;;;2.50;;
36279;SDS011;22317;47.936;12.742;2022-08-21T13:44:17;2.28;;;2.17;;
36279;SDS011;22317;47.936;12.742;2022-08-21T13:46:43;2.97;;;2.80;;
36279;SDS011;22317;47.936;12.742;2022-08-21T13:49:09;11.43;;;10.40;;
36279;SDS011;22317;47.936;12.742;2022-08-21T13:51:38;28.90;;;26.17;;
36279;SDS011;22317;47.936;12.742;2022-08-21T13:54:21;5.45;;;5.05;;
36279;SDS011;22317;47.936;12.742;2022-08-21T13:56:54;14.07;;;12.65;;
36279;SDS011;22317;47.936;12.742;2022-08-21T13:59:24;10.10;;;9.32;;
36279;SDS011;22317;47.936;12.742;2022-08-21T14:04:36;14.30;;;13.30;;
36279;SDS011;22317;47.936;12.742;2022-08-21T14:07:19;43.50;;;39.67;;
36279;SDS011;22317;47.936;12.742;2022-08-21T14:09:51;58.67;;;53.50;;
36279;SDS011;22317;47.936;12.742;2022-08-21T14:12:25;29.95;;;27.45;;
36279;SDS011;22317;47.936;12.742;2022-08-21T14:14:54;23.67;;;21.83;;
36279;SDS011;22317;47.936;12.742;2022-08-21T14:19:58;2.60;;;2.40;;
36279;SDS011;22317;47.936;12.742;2022-08-21T14:25:05;2.90;;;2.80;;
36279;SDS011;22317;47.936;12.742;2022-08-21T14:27:31;2.15;;;2.05;;
36279;SDS011;22317;47.936;12.742;2022-08-21T14:30:10;10.90;;;10.20;;
36279;SDS011;22317;47.936;12.742;2022-08-21T14:32:40;11.30;;;10.60;;
36279;SDS011;22317;47.936;12.742;2022-08-21T14:35:06;8.68;;;8.05;;
36279;SDS011;22317;47.936;12.742;2022-08-21T14:37:32;2.30;;;1.83;;
36279;SDS011;22317;47.936;12.742;2022-08-21T14:39:58;1.77;;;1.67;;
36279;SDS011;22317;47.936;12.742;2022-08-21T14:42:25;1.92;;;1.83;;
36279;SDS011;22317;47.936;12.742;2022-08-21T14:44:51;2.30;;;2.10;;
36279;SDS011;22317;47.936;12.742;2022-08-21T14:47:18;3.40;;;3.25;;
36279;SDS011;22317;47.936;12.742;2022-08-21T14:49:44;2.60;;;2.50;;
36279;SDS011;22317;47.936;12.742;2022-08-21T14:52:10;7.57;;;7.05;;
36279;SDS011;22317;47.936;12.742;2022-08-21T14:54:36;1.85;;;1.75;;
36279;SDS011;22317;47.936;12.742;2022-08-21T14:57:04;1.65;;;1.55;;
36279;SDS011;22317;47.936;12.742;2022-08-21T14:59:32;1.85;;;1.75;;
36279;SDS011;22317;47.936;12.742;2022-08-21T15:01:58;1.85;;;1.60;;
36279;SDS011;22317;47.936;12.742;2022-08-21T15:04:24;12.55;;;11.65;;
36279;SDS011;22317;47.936;12.742;2022-08-21T15:06:50;12.57;;;11.63;;
36279;SDS011;22317;47.936;12.742;2022-08-21T15:09:16;8.75;;;8.15;;
36279;SDS011;22317;47.936;12.742;2022-08-21T15:11:41;17.92;;;16.58;;
36279;SDS011;22317;47.936;12.742;2022-08-21T15:14:18;8.95;;;8.32;;
36279;SDS011;22317;47.936;12.742;2022-08-21T15:16:46;2.58;;;2.38;;
36279;SDS011;22317;47.936;12.742;2022-08-21T15:19:13;2.28;;;2.17;;
36279;SDS011;22317;47.936;12.742;2022-08-21T15:21:39;2.33;;;2.13;;
36279;SDS011;22317;47.936;12.742;2022-08-21T15:24:04;2.35;;;2.25;;
36279;SDS011;22317;47.936;12.742;2022-08-21T15:26:30;3.83;;;3.63;;
36279;SDS011;22317;47.936;12.742;2022-08-21T15:28:56;6.40;;;6.00;;
36279;SDS011;22317;47.936;12.742;2022-08-21T15:31:23;7.55;;;3.47;;
36279;SDS011;22317;47.936;12.742;2022-08-21T15:33:49;37.28;;;33.95;;
36279;SDS011;22317;47.936;12.742;2022-08-21T15:36:16;40.40;;;36.47;;
36279;SDS011;22317;47.936;12.742;2022-08-21T15:38:43;50.10;;;45.35;;
36279;SDS011;22317;47.936;12.742;2022-08-21T15:41:10;31.40;;;28.58;;
36279;SDS011;22317;47.936;12.742;2022-08-21T15:43:40;30.55;;;27.80;;
36279;SDS011;22317;47.936;12.742;2022-08-21T15:46:11;38.40;;;34.78;;
36279;SDS011;22317;47.936;12.742;2022-08-21T15:48:39;17.15;;;15.68;;
36279;SDS011;22317;47.936;12.742;2022-08-21T15:51:05;6.57;;;6.07;;
36279;SDS011;22317;47.936;12.742;2022-08-21T15:53:31;2.65;;;2.42;;
36279;SDS011;22317;47.936;12.742;2022-08-21T15:56:00;2.00;;;1.90;;
36279;SDS011;22317;47.936;12.742;2022-08-21T15:58:26;2.30;;;2.20;;
36279;SDS011;22317;47.936;12.742;2022-08-21T16:00:52;2.60;;;2.50;;
36279;SDS011;22317;47.936;12.742;2022-08-21T16:03:18;5.35;;;3.08;;
36279;SDS011;22317;47.936;12.742;2022-08-21T16:05:47;2.95;;;2.85;;
36279;SDS011;22317;47.936;12.742;2022-08-21T16:08:14;2.80;;;2.60;;
36279;SDS011;22317;47.936;12.742;2022-08-21T16:10:40;7.85;;;7.20;;
36279;SDS011;22317;47.936;12.742;2022-08-21T16:13:07;4.43;;;4.13;;
36279;SDS011;22317;47.936;12.742;2022-08-21T16:15:41;2.95;;;2.75;;
36279;SDS011;22317;47.936;12.742;2022-08-21T16:18:07;2.40;;;2.22;;
36279;SDS011;22317;47.936;12.742;2022-08-21T16:20:32;9.63;;;8.73;;
36279;SDS011;22317;47.936;12.742;2022-08-21T16:22:58;4.82;;;4.55;;
36279;SDS011;22317;47.936;12.742;2022-08-21T16:25:24;6.50;;;4.93;;